sensor_id;sensor_type;location;lat;lon;timestamp;pressure;altitude;pressure_sealevel;temperature;humidity
45937;BME280;31649;46.510;6.498;2023-03-13T07:18:53;94804.31;;;2.98;67.30
45937;BME280;31649;46.510;6.498;2023-03-13T07:21:18;94795.97;;;3.06;69.64
45937;BME280;31649;46.510;6.498;2023-03-13T07:23:44;94797.66;;;3.17;72.21
45937;BME280;31649;46.510;6.498;2023-03-13T07:26:12;94802.28;;;3.23;71.75
45937;BME280;31649;46.510;6.498;2023-03-13T07:28:38;94790.31;;;3.43;74.56
45937;BME280;31649;46.510;6.498;2023-03-13T07:31:06;94788.94;;;3.39;71.23
45937;BME280;31649;46.510;6.498;2023-03-13T07:33:32;94789.13;;;3.47;71.07
45937;BME280;31649;46.510;6.498;2023-03-13T07:35:58;94786.03;;;3.54;70.75
45937;BME280;31649;46.510;6.498;2023-03-13T07:38:24;94785.38;;;3.62;70.18
45937;BME280;31649;46.510;6.498;2023-03-13T07:40:54;94785.00;;;3.76;69.49
45937;BME280;31649;46.510;6.498;2023-03-13T07:43:20;94798.06;;;4.04;68.67
45937;BME280;31649;46.510;6.498;2023-03-13T07:45:56;94787.63;;;4.36;67.99
45937;BME280;31649;46.510;6.498;2023-03-13T07:48:25;94772.16;;;4.75;69.32
45937;BME280;31649;46.510;6.498;2023-03-13T07:50:50;94774.84;;;4.84;68.31
45937;BME280;31649;46.510;6.498;2023-03-13T07:53:16;94770.44;;;5.04;68.90
45937;BME280;31649;46.510;6.498;2023-03-13T07:56:12;94768.00;;;5.03;68.81
45937;BME280;31649;46.510;6.498;2023-03-13T07:58:39;94777.88;;;5.17;70.40
45937;BME280;31649;46.510;6.498;2023-03-13T08:01:09;94765.91;;;5.26;72.10
45937;BME280;31649;46.510;6.498;2023-03-13T08:03:35;94757.97;;;5.38;72.96
45937;BME280;31649;46.510;6.498;2023-03-13T08:06:04;94751.72;;;5.40;72.77
45937;BME280;31649;46.510;6.498;2023-03-13T08:08:30;94748.16;;;5.51;72.35
45937;BME280;31649;46.510;6.498;2023-03-13T08:11:04;94735.50;;;5.58;72.74
45937;BME280;31649;46.510;6.498;2023-03-13T08:13:31;94734.75;;;5.66;72.77
45937;BME280;31649;46.510;6.498;2023-03-13T08:18:33;94734.50;;;5.87;72.91
45937;BME280;31649;46.510;6.498;2023-03-13T08:21:04;94727.63;;;5.96;73.10
45937;BME280;31649;46.510;6.498;2023-03-13T08:23:30;94734.66;;;6.04;72.97
45937;BME280;31649;46.510;6.498;2023-03-13T08:26:01;94739.94;;;6.12;72.65
45937;BME280;31649;46.510;6.498;2023-03-13T08:28:27;94731.66;;;6.27;72.77
45937;BME280;31649;46.510;6.498;2023-03-13T08:30:52;94735.63;;;6.40;72.43
45937;BME280;31649;46.510;6.498;2023-03-13T08:33:18;94728.28;;;6.53;72.58
45937;BME280;31649;46.510;6.498;2023-03-13T08:35:43;94715.91;;;6.65;72.40
45937;BME280;31649;46.510;6.498;2023-03-13T08:38:09;94711.94;;;6.71;71.94
45937;BME280;31649;46.510;6.498;2023-03-13T08:40:35;94709.41;;;6.79;72.10
45937;BME280;31649;46.510;6.498;2023-03-13T08:43:00;94705.41;;;6.85;71.96
45937;BME280;31649;46.510;6.498;2023-03-13T08:45:26;94690.38;;;6.89;72.05
45937;BME280;31649;46.510;6.498;2023-03-13T08:47:52;94690.75;;;6.94;71.55
45937;BME280;31649;46.510;6.498;2023-03-13T08:50:18;94683.47;;;6.97;71.81
45937;BME280;31649;46.510;6.498;2023-03-13T08:52:44;94680.53;;;6.92;71.48
45937;BME280;31649;46.510;6.498;2023-03-13T08:55:10;94686.72;;;7.00;70.99
45937;BME280;31649;46.510;6.498;2023-03-13T08:57:35;94679.00;;;7.08;71.33
45937;BME280;31649;46.510;6.498;2023-03-13T09:00:02;94672.22;;;7.15;71.19
45937;BME280;31649;46.510;6.498;2023-03-13T09:02:29;94678.38;;;7.14;71.57
45937;BME280;31649;46.510;6.498;2023-03-13T09:04:55;94684.50;;;7.13;71.47
45937;BME280;31649;46.510;6.498;2023-03-13T09:07:20;94685.31;;;7.14;71.05
45937;BME280;31649;46.510;6.498;2023-03-13T09:09:46;94685.16;;;7.15;71.49
45937;BME280;31649;46.510;6.498;2023-03-13T09:12:11;94690.34;;;7.15;71.64
45937;BME280;31649;46.510;6.498;2023-03-13T09:14:37;94696.03;;;7.19;71.26
45937;BME280;31649;46.510;6.498;2023-03-13T09:17:02;94684.69;;;7.20;71.05
45937;BME280;31649;46.510;6.498;2023-03-13T09:19:28;94679.38;;;7.22;71.41
45937;BME280;31649;46.510;6.498;2023-03-13T09:21:54;94675.69;;;7.32;71.29
45937;BME280;31649;46.510;6.498;2023-03-13T09:24:19;94668.06;;;7.23;71.29
45937;BME280;31649;46.510;6.498;2023-03-13T09:26:45;94667.41;;;7.20;71.55
45937;BME280;31649;46.510;6.498;2023-03-13T09:29:10;94663.06;;;7.21;71.49
45937;BME280;31649;46.510;6.498;2023-03-13T09:31:36;94676.78;;;7.22;71.56
45937;BME280;31649;46.510;6.498;2023-03-13T09:34:02;94673.25;;;7.23;71.67
45937;BME280;31649;46.510;6.498;2023-03-13T09:36:28;94665.13;;;7.17;71.95
45937;BME280;31649;46.510;6.498;2023-03-13T09:38:57;94667.56;;;7.19;71.58
45937;BME280;31649;46.510;6.498;2023-03-13T09:41:25;94669.84;;;7.22;71.62
45937;BME280;31649;46.510;6.498;2023-03-13T09:47:08;94662.53;;;7.17;71.38
45937;BME280;31649;46.510;6.498;2023-03-13T09:49:38;94644.91;;;7.13;71.37
45937;BME280;31649;46.510;6.498;2023-03-13T09:52:20;94639.22;;;7.09;71.59
45937;BME280;31649;46.510;6.498;2023-03-13T09:57:39;94646.03;;;7.10;71.47
45937;BME280;31649;46.510;6.498;2023-03-13T10:00:13;94645.88;;;7.12;71.90
45937;BME280;31649;46.510;6.498;2023-03-13T10:02:45;94651.38;;;7.08;72.12
45937;BME280;31649;46.510;6.498;2023-03-13T10:05:21;94650.78;;;6.88;71.53
45937;BME280;31649;46.510;6.498;2023-03-13T10:07:49;94644.75;;;6.71;72.03
45937;BME280;31649;46.510;6.498;2023-03-13T10:10:24;94636.94;;;6.63;72.10
45937;BME280;31649;46.510;6.498;2023-03-13T10:13:09;94643.88;;;6.62;72.02
45937;BME280;31649;46.510;6.498;2023-03-13T10:16:02;94637.94;;;6.70;71.76
45937;BME280;31649;46.510;6.498;2023-03-13T10:18:31;94631.84;;;6.79;71.19
45937;BME280;31649;46.510;6.498;2023-03-13T10:21:11;94624.28;;;6.86;70.66
45937;BME280;31649;46.510;6.498;2023-03-13T10:23:49;94619.00;;;6.96;70.34
45937;BME280;31649;46.510;6.498;2023-03-13T10:26:31;94621.63;;;7.04;70.02
45937;BME280;31649;46.510;6.498;2023-03-13T10:29:15;94610.66;;;7.11;69.90
45937;BME280;31649;46.510;6.498;2023-03-13T10:32:01;94621.34;;;7.24;69.37
45937;BME280;31649;46.510;6.498;2023-03-13T10:34:32;94619.25;;;7.36;69.00
45937;BME280;31649;46.510;6.498;2023-03-13T10:37:11;94621.41;;;7.49;68.77
45937;BME280;31649;46.510;6.498;2023-03-13T10:39:40;94619.00;;;7.64;68.81
45937;BME280;31649;46.510;6.498;2023-03-13T10:42:17;94613.50;;;7.84;68.29
45937;BME280;31649;46.510;6.498;2023-03-13T10:44:45;94608.16;;;8.03;67.54
45937;BME280;31649;46.510;6.498;2023-03-13T10:47:13;94592.44;;;8.12;67.70
45937;BME280;31649;46.510;6.498;2023-03-13T10:49:51;94594.84;;;8.31;67.22
45937;BME280;31649;46.510;6.498;2023-03-13T10:52:32;94587.38;;;8.44;66.87
45937;BME280;31649;46.510;6.498;2023-03-13T10:55:00;94581.84;;;8.56;66.86
45937;BME280;31649;46.510;6.498;2023-03-13T10:57:30;94587.34;;;8.69;66.45
45937;BME280;31649;46.510;6.498;2023-03-13T10:59:57;94595.06;;;8.86;65.97
45937;BME280;31649;46.510;6.498;2023-03-13T11:02:37;94585.78;;;8.92;65.94
45937;BME280;31649;46.510;6.498;2023-03-13T11:07:48;94585.78;;;8.92;66.30
45937;BME280;31649;46.510;6.498;2023-03-13T11:10:18;94580.41;;;8.93;66.16
45937;BME280;31649;46.510;6.498;2023-03-13T11:12:45;94575.69;;;8.97;66.11
45937;BME280;31649;46.510;6.498;2023-03-13T11:15:19;94579.09;;;8.98;66.34
45937;BME280;31649;46.510;6.498;2023-03-13T11:18:03;94572.28;;;9.05;66.10
45937;BME280;31649;46.510;6.498;2023-03-13T11:20:35;94577.63;;;9.03;66.08
45937;BME280;31649;46.510;6.498;2023-03-13T11:23:19;94582.66;;;9.05;65.52
45937;BME280;31649;46.510;6.498;2023-03-13T11:28:55;94567.38;;;9.10;66.69
45937;BME280;31649;46.510;6.498;2023-03-13T11:31:33;94572.06;;;9.15;66.44
45937;BME280;31649;46.510;6.498;2023-03-13T11:36:52;94555.69;;;9.14;66.31
45937;BME280;31649;46.510;6.498;2023-03-13T11:44:29;94560.91;;;9.06;67.65
45937;BME280;31649;46.510;6.498;2023-03-13T11:49:44;94544.75;;;8.96;67.21
45937;BME280;31649;46.510;6.498;2023-03-13T11:52:47;94544.03;;;9.10;67.90
45937;BME280;31649;46.510;6.498;2023-03-13T11:55:27;94542.16;;;9.27;68.27
45937;BME280;31649;46.510;6.498;2023-03-13T12:00:46;94543.00;;;9.43;68.58
45937;BME280;31649;46.510;6.498;2023-03-13T12:03:19;94531.97;;;9.41;69.04
45937;BME280;31649;46.510;6.498;2023-03-13T12:05:55;94533.72;;;9.49;68.68
45937;BME280;31649;46.510;6.498;2023-03-13T12:08:38;94539.88;;;9.48;69.17
45937;BME280;31649;46.510;6.498;2023-03-13T12:13:43;94517.97;;;9.50;68.89
45937;BME280;31649;46.510;6.498;2023-03-13T12:16:16;94515.66;;;9.56;68.93
45937;BME280;31649;46.510;6.498;2023-03-13T12:18:44;94509.59;;;9.63;68.91
45937;BME280;31649;46.510;6.498;2023-03-13T12:21:18;94506.22;;;9.78;68.75
45937;BME280;31649;46.510;6.498;2023-03-13T12:26:32;94501.66;;;9.80;68.36
45937;BME280;31649;46.510;6.498;2023-03-13T12:29:15;94484.66;;;9.93;68.67
45937;BME280;31649;46.510;6.498;2023-03-13T12:31:51;94481.06;;;9.94;68.49
45937;BME280;31649;46.510;6.498;2023-03-13T12:34:26;94480.03;;;10.03;68.64
45937;BME280;31649;46.510;6.498;2023-03-13T12:40:14;94476.97;;;10.15;68.36
45937;BME280;31649;46.510;6.498;2023-03-13T12:42:48;94476.00;;;10.16;68.68
45937;BME280;31649;46.510;6.498;2023-03-13T12:45:18;94481.09;;;10.24;69.09
45937;BME280;31649;46.510;6.498;2023-03-13T12:48:13;94476.97;;;10.30;68.53
45937;BME280;31649;46.510;6.498;2023-03-13T12:50:47;94478.41;;;10.32;68.77
45937;BME280;31649;46.510;6.498;2023-03-13T13:04:14;94476.78;;;10.47;68.01
45937;BME280;31649;46.510;6.498;2023-03-13T13:06:52;94478.94;;;10.43;68.14
45937;BME280;31649;46.510;6.498;2023-03-13T13:12:28;94478.66;;;10.38;68.63
45937;BME280;31649;46.510;6.498;2023-03-13T13:15:17;94484.66;;;10.38;68.08
45937;BME280;31649;46.510;6.498;2023-03-13T13:17:49;94486.44;;;10.38;68.14
45937;BME280;31649;46.510;6.498;2023-03-13T13:20:32;94482.78;;;10.32;67.63
45937;BME280;31649;46.510;6.498;2023-03-13T13:23:29;94478.75;;;10.29;67.99
45937;BME280;31649;46.510;6.498;2023-03-13T13:29:50;94467.81;;;9.89;67.60
45937;BME280;31649;46.510;6.498;2023-03-13T13:39:39;94474.25;;;9.78;68.24
45937;BME280;31649;46.510;6.498;2023-03-13T13:47:24;94463.06;;;9.92;68.18
45937;BME280;31649;46.510;6.498;2023-03-13T13:49:55;94466.31;;;9.94;67.84
45937;BME280;31649;46.510;6.498;2023-03-13T13:52:36;94464.03;;;9.91;68.29
45937;BME280;31649;46.510;6.498;2023-03-13T13:58:19;94453.53;;;9.54;68.07
